sensor_id;sensor_type;location;lat;lon;timestamp;P1;durP1;ratioP1;P2;durP2;ratioP2
53710;SDS011;39605;52.704;6.752;2024-01-30T00:02:13;19.10;;;15.82;;
53710;SDS011;39605;52.704;6.752;2024-01-30T00:04:39;16.75;;;14.98;;
53710;SDS011;39605;52.704;6.752;2024-01-30T00:07:05;18.50;;;14.57;;
53710;SDS011;39605;52.704;6.752;2024-01-30T00:09:31;19.10;;;15.20;;
53710;SDS011;39605;52.704;6.752;2024-01-30T00:11:57;16.13;;;14.48;;
53710;SDS011;39605;52.704;6.752;2024-01-30T00:14:23;15.95;;;14.40;;
53710;SDS011;39605;52.704;6.752;2024-01-30T00:16:50;17.10;;;15.13;;
53710;SDS011;39605;52.704;6.752;2024-01-30T00:19:16;20.20;;;15.30;;
53710;SDS011;39605;52.704;6.752;2024-01-30T00:21:42;18.10;;;14.73;;
53710;SDS011;39605;52.704;6.752;2024-01-30T00:24:08;17.60;;;15.52;;
53710;SDS011;39605;52.704;6.752;2024-01-30T00:26:34;15.68;;;13.82;;
53710;SDS011;39605;52.704;6.752;2024-01-30T00:29:00;17.42;;;13.73;;
53710;SDS011;39605;52.704;6.752;2024-01-30T00:31:27;16.73;;;14.50;;
53710;SDS011;39605;52.704;6.752;2024-01-30T00:33:53;17.10;;;15.32;;
53710;SDS011;39605;52.704;6.752;2024-01-30T00:36:19;16.10;;;14.40;;
53710;SDS011;39605;52.704;6.752;2024-01-30T00:38:45;17.23;;;14.48;;
53710;SDS011;39605;52.704;6.752;2024-01-30T00:41:11;15.30;;;13.65;;
53710;SDS011;39605;52.704;6.752;2024-01-30T00:43:37;15.68;;;14.00;;
53710;SDS011;39605;52.704;6.752;2024-01-30T00:46:03;15.82;;;14.20;;
53710;SDS011;39605;52.704;6.752;2024-01-30T00:48:29;16.48;;;14.75;;
53710;SDS011;39605;52.704;6.752;2024-01-30T00:50:55;17.23;;;14.38;;
53710;SDS011;39605;52.704;6.752;2024-01-30T00:53:21;16.48;;;14.77;;
53710;SDS011;39605;52.704;6.752;2024-01-30T00:55:47;15.38;;;13.75;;
53710;SDS011;39605;52.704;6.752;2024-01-30T00:58:14;15.88;;;14.02;;
53710;SDS011;39605;52.704;6.752;2024-01-30T01:00:40;17.58;;;14.73;;
53710;SDS011;39605;52.704;6.752;2024-01-30T01:03:06;15.55;;;13.95;;
53710;SDS011;39605;52.704;6.752;2024-01-30T01:05:32;18.02;;;14.73;;
53710;SDS011;39605;52.704;6.752;2024-01-30T01:07:58;17.65;;;15.07;;
53710;SDS011;39605;52.704;6.752;2024-01-30T01:10:24;16.23;;;14.07;;
53710;SDS011;39605;52.704;6.752;2024-01-30T01:12:50;16.42;;;14.02;;
53710;SDS011;39605;52.704;6.752;2024-01-30T01:15:16;17.23;;;13.95;;
53710;SDS011;39605;52.704;6.752;2024-01-30T01:17:42;16.85;;;14.38;;
53710;SDS011;39605;52.704;6.752;2024-01-30T01:20:08;15.85;;;14.15;;
53710;SDS011;39605;52.704;6.752;2024-01-30T01:22:35;18.60;;;13.60;;
53710;SDS011;39605;52.704;6.752;2024-01-30T01:25:03;18.30;;;13.13;;
53710;SDS011;39605;52.704;6.752;2024-01-30T01:27:33;16.33;;;13.75;;
53710;SDS011;39605;52.704;6.752;2024-01-30T01:29:59;16.33;;;13.93;;
53710;SDS011;39605;52.704;6.752;2024-01-30T01:32:26;15.32;;;13.57;;
53710;SDS011;39605;52.704;6.752;2024-01-30T01:34:52;15.07;;;13.43;;
53710;SDS011;39605;52.704;6.752;2024-01-30T01:37:19;14.93;;;13.43;;
53710;SDS011;39605;52.704;6.752;2024-01-30T01:39:47;15.75;;;14.05;;
53710;SDS011;39605;52.704;6.752;2024-01-30T01:42:13;14.93;;;13.38;;
53710;SDS011;39605;52.704;6.752;2024-01-30T01:44:39;14.40;;;12.80;;
53710;SDS011;39605;52.704;6.752;2024-01-30T01:47:05;15.70;;;14.15;;
53710;SDS011;39605;52.704;6.752;2024-01-30T01:49:31;14.80;;;13.38;;
53710;SDS011;39605;52.704;6.752;2024-01-30T01:51:58;18.90;;;13.98;;
53710;SDS011;39605;52.704;6.752;2024-01-30T01:54:25;15.95;;;14.02;;
53710;SDS011;39605;52.704;6.752;2024-01-30T01:56:51;15.30;;;13.75;;
53710;SDS011;39605;52.704;6.752;2024-01-30T01:59:18;15.98;;;13.20;;
53710;SDS011;39605;52.704;6.752;2024-01-30T02:01:45;15.38;;;13.80;;
53710;SDS011;39605;52.704;6.752;2024-01-30T02:04:14;17.40;;;13.27;;
53710;SDS011;39605;52.704;6.752;2024-01-30T02:06:40;16.73;;;13.75;;
53710;SDS011;39605;52.704;6.752;2024-01-30T02:09:06;15.15;;;13.52;;
53710;SDS011;39605;52.704;6.752;2024-01-30T02:11:34;16.13;;;13.63;;
53710;SDS011;39605;52.704;6.752;2024-01-30T02:14:04;15.27;;;13.30;;
53710;SDS011;39605;52.704;6.752;2024-01-30T02:16:30;16.20;;;13.18;;
53710;SDS011;39605;52.704;6.752;2024-01-30T02:18:56;16.70;;;12.88;;
53710;SDS011;39605;52.704;6.752;2024-01-30T02:21:22;16.00;;;13.40;;
53710;SDS011;39605;52.704;6.752;2024-01-30T02:23:49;18.83;;;13.80;;
53710;SDS011;39605;52.704;6.752;2024-01-30T02:26:15;18.05;;;14.40;;
53710;SDS011;39605;52.704;6.752;2024-01-30T02:28:41;15.65;;;13.25;;
53710;SDS011;39605;52.704;6.752;2024-01-30T02:31:07;14.52;;;13.10;;
53710;SDS011;39605;52.704;6.752;2024-01-30T02:33:33;17.17;;;12.13;;
53710;SDS011;39605;52.704;6.752;2024-01-30T02:35:59;18.13;;;13.43;;
53710;SDS011;39605;52.704;6.752;2024-01-30T02:38:25;17.08;;;13.32;;
53710;SDS011;39605;52.704;6.752;2024-01-30T02:40:52;15.85;;;14.18;;
53710;SDS011;39605;52.704;6.752;2024-01-30T02:43:18;15.10;;;13.43;;
53710;SDS011;39605;52.704;6.752;2024-01-30T02:45:44;16.58;;;12.93;;
53710;SDS011;39605;52.704;6.752;2024-01-30T02:48:10;16.02;;;13.85;;
53710;SDS011;39605;52.704;6.752;2024-01-30T02:50:36;16.30;;;13.57;;
53710;SDS011;39605;52.704;6.752;2024-01-30T02:53:02;13.63;;;12.00;;
53710;SDS011;39605;52.704;6.752;2024-01-30T02:55:28;14.43;;;12.80;;
53710;SDS011;39605;52.704;6.752;2024-01-30T02:57:54;14.07;;;12.73;;
53710;SDS011;39605;52.704;6.752;2024-01-30T03:00:20;15.50;;;13.90;;
53710;SDS011;39605;52.704;6.752;2024-01-30T03:02:46;13.50;;;12.15;;
53710;SDS011;39605;52.704;6.752;2024-01-30T03:05:12;14.90;;;13.38;;
53710;SDS011;39605;52.704;6.752;2024-01-30T03:07:38;13.88;;;12.55;;
53710;SDS011;39605;52.704;6.752;2024-01-30T03:10:05;14.13;;;12.57;;
53710;SDS011;39605;52.704;6.752;2024-01-30T03:12:31;14.20;;;12.70;;
53710;SDS011;39605;52.704;6.752;2024-01-30T03:14:57;15.38;;;13.80;;
53710;SDS011;39605;52.704;6.752;2024-01-30T03:17:23;15.13;;;13.43;;
53710;SDS011;39605;52.704;6.752;2024-01-30T03:19:49;14.50;;;12.80;;
53710;SDS011;39605;52.704;6.752;2024-01-30T03:22:15;16.70;;;13.32;;
53710;SDS011;39605;52.704;6.752;2024-01-30T03:24:41;14.60;;;12.63;;
53710;SDS011;39605;52.704;6.752;2024-01-30T03:27:08;14.23;;;12.50;;
53710;SDS011;39605;52.704;6.752;2024-01-30T03:29:34;13.25;;;11.85;;
53710;SDS011;39605;52.704;6.752;2024-01-30T03:32:00;14.63;;;13.13;;
53710;SDS011;39605;52.704;6.752;2024-01-30T03:34:26;15.18;;;13.43;;
53710;SDS011;39605;52.704;6.752;2024-01-30T03:36:52;15.25;;;13.38;;
53710;SDS011;39605;52.704;6.752;2024-01-30T03:39:18;13.52;;;12.30;;
53710;SDS011;39605;52.704;6.752;2024-01-30T03:41:44;16.83;;;13.13;;
53710;SDS011;39605;52.704;6.752;2024-01-30T03:44:11;14.68;;;13.18;;
53710;SDS011;39605;52.704;6.752;2024-01-30T03:46:37;14.80;;;13.27;;
53710;SDS011;39605;52.704;6.752;2024-01-30T03:49:03;15.85;;;12.50;;
53710;SDS011;39605;52.704;6.752;2024-01-30T03:51:29;15.50;;;13.07;;
53710;SDS011;39605;52.704;6.752;2024-01-30T03:53:55;14.48;;;12.93;;
53710;SDS011;39605;52.704;6.752;2024-01-30T03:56:21;14.30;;;12.80;;
53710;SDS011;39605;52.704;6.752;2024-01-30T03:58:47;14.25;;;12.85;;
53710;SDS011;39605;52.704;6.752;2024-01-30T04:01:14;14.30;;;12.82;;
53710;SDS011;39605;52.704;6.752;2024-01-30T04:03:40;15.27;;;12.68;;
53710;SDS011;39605;52.704;6.752;2024-01-30T04:06:06;14.30;;;12.70;;
53710;SDS011;39605;52.704;6.752;2024-01-30T04:08:32;14.75;;;13.25;;
53710;SDS011;39605;52.704;6.752;2024-01-30T04:10:58;15.35;;;13.15;;
53710;SDS011;39605;52.704;6.752;2024-01-30T04:13:24;16.33;;;13.32;;
53710;SDS011;39605;52.704;6.752;2024-01-30T04:15:50;14.52;;;13.07;;
53710;SDS011;39605;52.704;6.752;2024-01-30T04:18:17;15.45;;;13.23;;
53710;SDS011;39605;52.704;6.752;2024-01-30T04:20:43;15.70;;;13.82;;
53710;SDS011;39605;52.704;6.752;2024-01-30T04:23:09;14.00;;;12.55;;
53710;SDS011;39605;52.704;6.752;2024-01-30T04:25:35;14.82;;;13.05;;
53710;SDS011;39605;52.704;6.752;2024-01-30T04:28:01;15.18;;;13.60;;
53710;SDS011;39605;52.704;6.752;2024-01-30T04:30:27;17.30;;;13.60;;
53710;SDS011;39605;52.704;6.752;2024-01-30T04:32:53;14.02;;;12.52;;
53710;SDS011;39605;52.704;6.752;2024-01-30T04:35:19;15.23;;;13.65;;
53710;SDS011;39605;52.704;6.752;2024-01-30T04:37:48;15.60;;;12.68;;
53710;SDS011;39605;52.704;6.752;2024-01-30T04:40:14;15.77;;;14.00;;
53710;SDS011;39605;52.704;6.752;2024-01-30T04:42:40;15.57;;;14.15;;
53710;SDS011;39605;52.704;6.752;2024-01-30T04:45:06;15.60;;;13.75;;
53710;SDS011;39605;52.704;6.752;2024-01-30T04:47:33;15.52;;;13.98;;
53710;SDS011;39605;52.704;6.752;2024-01-30T04:49:59;19.77;;;14.52;;
53710;SDS011;39605;52.704;6.752;2024-01-30T04:52:25;15.98;;;13.77;;
53710;SDS011;39605;52.704;6.752;2024-01-30T04:54:51;15.75;;;13.60;;
53710;SDS011;39605;52.704;6.752;2024-01-30T04:57:17;17.30;;;13.77;;
53710;SDS011;39605;52.704;6.752;2024-01-30T04:59:43;17.27;;;14.45;;
53710;SDS011;39605;52.704;6.752;2024-01-30T05:02:09;15.52;;;13.63;;
53710;SDS011;39605;52.704;6.752;2024-01-30T05:04:35;14.80;;;12.88;;
53710;SDS011;39605;52.704;6.752;2024-01-30T05:07:01;15.25;;;13.43;;
53710;SDS011;39605;52.704;6.752;2024-01-30T05:09:27;17.88;;;15.35;;
53710;SDS011;39605;52.704;6.752;2024-01-30T05:11:53;18.48;;;15.13;;
53710;SDS011;39605;52.704;6.752;2024-01-30T05:14:20;17.10;;;13.68;;
53710;SDS011;39605;52.704;6.752;2024-01-30T05:16:46;17.80;;;14.68;;
53710;SDS011;39605;52.704;6.752;2024-01-30T05:19:15;14.68;;;13.13;;
53710;SDS011;39605;52.704;6.752;2024-01-30T05:21:42;15.30;;;13.77;;
53710;SDS011;39605;52.704;6.752;2024-01-30T05:24:08;22.90;;;14.77;;
53710;SDS011;39605;52.704;6.752;2024-01-30T05:26:35;18.17;;;14.25;;
53710;SDS011;39605;52.704;6.752;2024-01-30T05:29:01;17.67;;;13.88;;
53710;SDS011;39605;52.704;6.752;2024-01-30T05:31:27;15.60;;;13.98;;
53710;SDS011;39605;52.704;6.752;2024-01-30T05:33:54;15.68;;;13.68;;
53710;SDS011;39605;52.704;6.752;2024-01-30T05:36:20;15.32;;;13.32;;
53710;SDS011;39605;52.704;6.752;2024-01-30T05:38:46;16.63;;;13.80;;
53710;SDS011;39605;52.704;6.752;2024-01-30T05:41:12;16.25;;;13.93;;
53710;SDS011;39605;52.704;6.752;2024-01-30T05:43:39;17.92;;;13.65;;
53710;SDS011;39605;52.704;6.752;2024-01-30T05:46:05;15.43;;;12.80;;
53710;SDS011;39605;52.704;6.752;2024-01-30T05:48:32;18.38;;;13.02;;
53710;SDS011;39605;52.704;6.752;2024-01-30T05:51:00;14.93;;;12.93;;
53710;SDS011;39605;52.704;6.752;2024-01-30T05:53:26;17.45;;;13.50;;
53710;SDS011;39605;52.704;6.752;2024-01-30T05:55:52;14.63;;;12.52;;
53710;SDS011;39605;52.704;6.752;2024-01-30T05:58:18;14.77;;;12.95;;
53710;SDS011;39605;52.704;6.752;2024-01-30T06:00:44;14.85;;;13.35;;
53710;SDS011;39605;52.704;6.752;2024-01-30T06:03:10;14.73;;;13.18;;
53710;SDS011;39605;52.704;6.752;2024-01-30T06:05:36;14.10;;;12.60;;
53710;SDS011;39605;52.704;6.752;2024-01-30T06:08:02;14.38;;;12.70;;
53710;SDS011;39605;52.704;6.752;2024-01-30T06:10:28;14.80;;;13.23;;
53710;SDS011;39605;52.704;6.752;2024-01-30T06:12:54;12.82;;;11.52;;
53710;SDS011;39605;52.704;6.752;2024-01-30T06:15:20;14.35;;;12.70;;
53710;SDS011;39605;52.704;6.752;2024-01-30T06:17:46;14.50;;;12.90;;
53710;SDS011;39605;52.704;6.752;2024-01-30T06:20:13;14.00;;;12.40;;
53710;SDS011;39605;52.704;6.752;2024-01-30T06:22:39;15.93;;;13.45;;
53710;SDS011;39605;52.704;6.752;2024-01-30T06:25:05;15.57;;;13.20;;
53710;SDS011;39605;52.704;6.752;2024-01-30T06:27:31;13.85;;;12.38;;
53710;SDS011;39605;52.704;6.752;2024-01-30T06:29:57;17.30;;;13.27;;
53710;SDS011;39605;52.704;6.752;2024-01-30T06:32:23;13.98;;;12.68;;
53710;SDS011;39605;52.704;6.752;2024-01-30T06:34:50;16.60;;;13.23;;
53710;SDS011;39605;52.704;6.752;2024-01-30T06:37:16;15.05;;;11.80;;
53710;SDS011;39605;52.704;6.752;2024-01-30T06:39:42;14.93;;;12.93;;
53710;SDS011;39605;52.704;6.752;2024-01-30T06:42:08;15.18;;;13.35;;
53710;SDS011;39605;52.704;6.752;2024-01-30T06:44:34;15.57;;;13.48;;
53710;SDS011;39605;52.704;6.752;2024-01-30T06:47:00;15.15;;;13.40;;
53710;SDS011;39605;52.704;6.752;2024-01-30T06:49:26;15.20;;;13.73;;
53710;SDS011;39605;52.704;6.752;2024-01-30T06:51:52;15.27;;;13.68;;
53710;SDS011;39605;52.704;6.752;2024-01-30T06:54:18;14.95;;;13.45;;
53710;SDS011;39605;52.704;6.752;2024-01-30T06:56:44;15.73;;;13.60;;
53710;SDS011;39605;52.704;6.752;2024-01-30T06:59:10;14.88;;;13.40;;
53710;SDS011;39605;52.704;6.752;2024-01-30T07:01:36;16.23;;;14.52;;
53710;SDS011;39605;52.704;6.752;2024-01-30T07:04:03;14.32;;;12.82;;
53710;SDS011;39605;52.704;6.752;2024-01-30T07:06:29;15.10;;;13.27;;
53710;SDS011;39605;52.704;6.752;2024-01-30T07:08:55;14.50;;;13.00;;
53710;SDS011;39605;52.704;6.752;2024-01-30T07:11:21;15.60;;;12.85;;
53710;SDS011;39605;52.704;6.752;2024-01-30T07:13:49;15.02;;;13.63;;
53710;SDS011;39605;52.704;6.752;2024-01-30T07:16:16;17.42;;;13.40;;
53710;SDS011;39605;52.704;6.752;2024-01-30T07:18:43;15.00;;;13.43;;
53710;SDS011;39605;52.704;6.752;2024-01-30T07:21:09;13.10;;;11.52;;
53710;SDS011;39605;52.704;6.752;2024-01-30T07:23:35;13.98;;;12.60;;
53710;SDS011;39605;52.704;6.752;2024-01-30T07:26:04;14.07;;;12.68;;
53710;SDS011;39605;52.704;6.752;2024-01-30T07:28:30;13.05;;;11.73;;
53710;SDS011;39605;52.704;6.752;2024-01-30T07:30:56;13.20;;;12.00;;
53710;SDS011;39605;52.704;6.752;2024-01-30T07:33:22;15.90;;;12.98;;
53710;SDS011;39605;52.704;6.752;2024-01-30T07:35:48;14.48;;;12.98;;
53710;SDS011;39605;52.704;6.752;2024-01-30T07:38:14;15.25;;;13.23;;
53710;SDS011;39605;52.704;6.752;2024-01-30T07:40:40;13.27;;;11.88;;
53710;SDS011;39605;52.704;6.752;2024-01-30T07:43:06;13.38;;;11.93;;
53710;SDS011;39605;52.704;6.752;2024-01-30T07:45:33;13.55;;;12.18;;
53710;SDS011;39605;52.704;6.752;2024-01-30T07:47:59;12.73;;;10.75;;
53710;SDS011;39605;52.704;6.752;2024-01-30T07:50:26;14.55;;;12.45;;
53710;SDS011;39605;52.704;6.752;2024-01-30T07:52:52;13.27;;;11.65;;
53710;SDS011;39605;52.704;6.752;2024-01-30T07:55:23;13.32;;;11.93;;
53710;SDS011;39605;52.704;6.752;2024-01-30T07:57:52;14.80;;;12.15;;
53710;SDS011;39605;52.704;6.752;2024-01-30T08:00:19;14.68;;;10.68;;
53710;SDS011;39605;52.704;6.752;2024-01-30T08:02:45;14.52;;;12.20;;
53710;SDS011;39605;52.704;6.752;2024-01-30T08:05:11;14.07;;;12.60;;
53710;SDS011;39605;52.704;6.752;2024-01-30T08:07:39;13.70;;;12.35;;
53710;SDS011;39605;52.704;6.752;2024-01-30T08:10:05;13.57;;;12.25;;
53710;SDS011;39605;52.704;6.752;2024-01-30T08:12:31;16.75;;;12.93;;
53710;SDS011;39605;52.704;6.752;2024-01-30T08:14:58;13.95;;;12.27;;
53710;SDS011;39605;52.704;6.752;2024-01-30T08:17:24;14.63;;;13.13;;
53710;SDS011;39605;52.704;6.752;2024-01-30T08:19:50;15.35;;;12.00;;
53710;SDS011;39605;52.704;6.752;2024-01-30T08:22:16;14.75;;;12.32;;
53710;SDS011;39605;52.704;6.752;2024-01-30T08:24:42;12.90;;;11.55;;
53710;SDS011;39605;52.704;6.752;2024-01-30T08:27:08;13.38;;;12.05;;
53710;SDS011;39605;52.704;6.752;2024-01-30T08:29:35;14.73;;;12.13;;
53710;SDS011;39605;52.704;6.752;2024-01-30T08:32:01;13.13;;;11.65;;
53710;SDS011;39605;52.704;6.752;2024-01-30T08:34:27;13.20;;;11.77;;
53710;SDS011;39605;52.704;6.752;2024-01-30T08:36:53;13.20;;;11.75;;
53710;SDS011;39605;52.704;6.752;2024-01-30T08:39:19;13.93;;;11.85;;
53710;SDS011;39605;52.704;6.752;2024-01-30T08:41:45;12.48;;;10.48;;
53710;SDS011;39605;52.704;6.752;2024-01-30T08:44:11;13.88;;;12.40;;
53710;SDS011;39605;52.704;6.752;2024-01-30T08:46:37;12.85;;;10.55;;
53710;SDS011;39605;52.704;6.752;2024-01-30T08:49:03;11.82;;;10.73;;
53710;SDS011;39605;52.704;6.752;2024-01-30T08:51:30;13.48;;;11.77;;
53710;SDS011;39605;52.704;6.752;2024-01-30T08:53:56;12.77;;;10.70;;
53710;SDS011;39605;52.704;6.752;2024-01-30T08:56:22;15.10;;;11.32;;
53710;SDS011;39605;52.704;6.752;2024-01-30T08:58:48;16.20;;;12.95;;
53710;SDS011;39605;52.704;6.752;2024-01-30T09:01:14;14.20;;;11.52;;
53710;SDS011;39605;52.704;6.752;2024-01-30T09:03:40;13.55;;;10.50;;
53710;SDS011;39605;52.704;6.752;2024-01-30T09:06:08;12.07;;;10.82;;
53710;SDS011;39605;52.704;6.752;2024-01-30T09:08:35;11.98;;;10.73;;
53710;SDS011;39605;52.704;6.752;2024-01-30T09:11:01;14.43;;;10.50;;
53710;SDS011;39605;52.704;6.752;2024-01-30T09:13:27;12.50;;;10.35;;
53710;SDS011;39605;52.704;6.752;2024-01-30T09:15:53;11.95;;;10.07;;
53710;SDS011;39605;52.704;6.752;2024-01-30T09:18:20;14.00;;;11.07;;
53710;SDS011;39605;52.704;6.752;2024-01-30T09:20:47;12.50;;;11.20;;
53710;SDS011;39605;52.704;6.752;2024-01-30T09:23:13;12.50;;;11.20;;
53710;SDS011;39605;52.704;6.752;2024-01-30T09:25:39;10.48;;;9.32;;
53710;SDS011;39605;52.704;6.752;2024-01-30T09:28:05;13.70;;;11.43;;
53710;SDS011;39605;52.704;6.752;2024-01-30T09:30:32;12.13;;;10.90;;
53710;SDS011;39605;52.704;6.752;2024-01-30T09:32:58;12.02;;;10.82;;
53710;SDS011;39605;52.704;6.752;2024-01-30T09:35:24;10.68;;;9.60;;
53710;SDS011;39605;52.704;6.752;2024-01-30T09:37:50;12.02;;;10.80;;
53710;SDS011;39605;52.704;6.752;2024-01-30T09:40:17;11.70;;;10.10;;
53710;SDS011;39605;52.704;6.752;2024-01-30T09:42:46;12.48;;;10.73;;
53710;SDS011;39605;52.704;6.752;2024-01-30T09:45:15;12.80;;;10.95;;
53710;SDS011;39605;52.704;6.752;2024-01-30T09:47:42;12.57;;;11.30;;
53710;SDS011;39605;52.704;6.752;2024-01-30T09:50:08;12.07;;;10.80;;
53710;SDS011;39605;52.704;6.752;2024-01-30T09:52:35;13.82;;;10.88;;
53710;SDS011;39605;52.704;6.752;2024-01-30T09:55:02;13.57;;;11.43;;
53710;SDS011;39605;52.704;6.752;2024-01-30T09:57:28;13.90;;;10.52;;
53710;SDS011;39605;52.704;6.752;2024-01-30T09:59:54;13.10;;;11.10;;
53710;SDS011;39605;52.704;6.752;2024-01-30T10:02:20;14.27;;;10.10;;
53710;SDS011;39605;52.704;6.752;2024-01-30T10:04:47;12.90;;;10.52;;
53710;SDS011;39605;52.704;6.752;2024-01-30T10:07:14;12.13;;;9.27;;
53710;SDS011;39605;52.704;6.752;2024-01-30T10:09:40;11.95;;;10.20;;
53710;SDS011;39605;52.704;6.752;2024-01-30T10:12:07;12.88;;;10.00;;
53710;SDS011;39605;52.704;6.752;2024-01-30T10:14:33;13.70;;;10.82;;
53710;SDS011;39605;52.704;6.752;2024-01-30T10:17:00;11.55;;;10.25;;
53710;SDS011;39605;52.704;6.752;2024-01-30T10:19:27;10.93;;;9.63;;
53710;SDS011;39605;52.704;6.752;2024-01-30T10:21:53;11.35;;;9.13;;
53710;SDS011;39605;52.704;6.752;2024-01-30T10:24:19;14.15;;;10.23;;
53710;SDS011;39605;52.704;6.752;2024-01-30T10:26:49;11.38;;;9.43;;
53710;SDS011;39605;52.704;6.752;2024-01-30T10:29:16;14.00;;;10.18;;
53710;SDS011;39605;52.704;6.752;2024-01-30T10:31:42;14.07;;;10.68;;
53710;SDS011;39605;52.704;6.752;2024-01-30T10:34:08;11.90;;;9.82;;
53710;SDS011;39605;52.704;6.752;2024-01-30T10:36:38;16.77;;;10.27;;
53710;SDS011;39605;52.704;6.752;2024-01-30T10:39:06;13.80;;;10.20;;
53710;SDS011;39605;52.704;6.752;2024-01-30T10:41:35;11.85;;;9.77;;
53710;SDS011;39605;52.704;6.752;2024-01-30T10:44:05;13.77;;;10.73;;
53710;SDS011;39605;52.704;6.752;2024-01-30T10:46:33;13.60;;;10.48;;
53710;SDS011;39605;52.704;6.752;2024-01-30T10:49:01;15.07;;;10.13;;
53710;SDS011;39605;52.704;6.752;2024-01-30T10:51:27;10.90;;;9.77;;
53710;SDS011;39605;52.704;6.752;2024-01-30T10:53:53;15.75;;;11.13;;
53710;SDS011;39605;52.704;6.752;2024-01-30T10:56:21;15.88;;;10.85;;
53710;SDS011;39605;52.704;6.752;2024-01-30T10:58:49;15.88;;;10.10;;
53710;SDS011;39605;52.704;6.752;2024-01-30T11:01:16;11.43;;;9.70;;
53710;SDS011;39605;52.704;6.752;2024-01-30T11:03:42;12.55;;;10.20;;
53710;SDS011;39605;52.704;6.752;2024-01-30T11:06:12;14.32;;;10.40;;
53710;SDS011;39605;52.704;6.752;2024-01-30T11:08:43;11.77;;;10.68;;
53710;SDS011;39605;52.704;6.752;2024-01-30T11:11:09;13.02;;;10.88;;
53710;SDS011;39605;52.704;6.752;2024-01-30T11:13:35;14.05;;;9.80;;
53710;SDS011;39605;52.704;6.752;2024-01-30T11:16:02;16.35;;;10.75;;
53710;SDS011;39605;52.704;6.752;2024-01-30T11:18:29;12.65;;;11.35;;
53710;SDS011;39605;52.704;6.752;2024-01-30T11:20:56;13.45;;;10.23;;
53710;SDS011;39605;52.704;6.752;2024-01-30T11:23:23;13.07;;;9.75;;
53710;SDS011;39605;52.704;6.752;2024-01-30T11:25:49;12.35;;;10.43;;
53710;SDS011;39605;52.704;6.752;2024-01-30T11:28:17;14.00;;;10.65;;
53710;SDS011;39605;52.704;6.752;2024-01-30T11:30:44;13.25;;;11.77;;
53710;SDS011;39605;52.704;6.752;2024-01-30T11:33:12;14.68;;;11.23;;
53710;SDS011;39605;52.704;6.752;2024-01-30T11:35:42;15.55;;;11.65;;
53710;SDS011;39605;52.704;6.752;2024-01-30T11:38:10;13.02;;;11.00;;
53710;SDS011;39605;52.704;6.752;2024-01-30T11:40:39;14.80;;;10.93;;
53710;SDS011;39605;52.704;6.752;2024-01-30T11:43:05;13.70;;;10.27;;
53710;SDS011;39605;52.704;6.752;2024-01-30T11:45:32;12.38;;;10.75;;
53710;SDS011;39605;52.704;6.752;2024-01-30T11:47:59;12.25;;;10.88;;
53710;SDS011;39605;52.704;6.752;2024-01-30T11:50:26;14.07;;;9.93;;
53710;SDS011;39605;52.704;6.752;2024-01-30T11:52:53;12.73;;;11.43;;
53710;SDS011;39605;52.704;6.752;2024-01-30T11:55:20;16.23;;;11.75;;
53710;SDS011;39605;52.704;6.752;2024-01-30T11:57:46;15.50;;;11.65;;
53710;SDS011;39605;52.704;6.752;2024-01-30T12:00:15;17.17;;;10.20;;
53710;SDS011;39605;52.704;6.752;2024-01-30T12:02:42;13.75;;;11.35;;
53710;SDS011;39605;52.704;6.752;2024-01-30T12:05:08;12.27;;;11.10;;
53710;SDS011;39605;52.704;6.752;2024-01-30T12:07:34;13.32;;;10.68;;
53710;SDS011;39605;52.704;6.752;2024-01-30T12:10:01;15.75;;;10.35;;
53710;SDS011;39605;52.704;6.752;2024-01-30T12:12:28;14.82;;;10.90;;
53710;SDS011;39605;52.704;6.752;2024-01-30T12:14:55;14.50;;;10.32;;
53710;SDS011;39605;52.704;6.752;2024-01-30T12:17:28;11.85;;;10.57;;
53710;SDS011;39605;52.704;6.752;2024-01-30T12:20:04;15.10;;;10.93;;
53710;SDS011;39605;52.704;6.752;2024-01-30T12:22:32;13.48;;;10.18;;
53710;SDS011;39605;52.704;6.752;2024-01-30T12:25:04;13.32;;;9.75;;
53710;SDS011;39605;52.704;6.752;2024-01-30T12:27:30;11.40;;;9.73;;
53710;SDS011;39605;52.704;6.752;2024-01-30T12:29:57;12.73;;;10.38;;
53710;SDS011;39605;52.704;6.752;2024-01-30T12:32:23;11.55;;;9.43;;
53710;SDS011;39605;52.704;6.752;2024-01-30T12:34:49;12.30;;;10.07;;
53710;SDS011;39605;52.704;6.752;2024-01-30T12:37:15;11.65;;;9.90;;
53710;SDS011;39605;52.704;6.752;2024-01-30T12:39:45;11.32;;;9.98;;
53710;SDS011;39605;52.704;6.752;2024-01-30T12:42:11;11.00;;;9.95;;
53710;SDS011;39605;52.704;6.752;2024-01-30T12:44:38;12.90;;;10.18;;
53710;SDS011;39605;52.704;6.752;2024-01-30T12:47:05;11.82;;;10.63;;
53710;SDS011;39605;52.704;6.752;2024-01-30T12:49:31;12.35;;;9.60;;
53710;SDS011;39605;52.704;6.752;2024-01-30T12:51:58;13.93;;;10.23;;
53710;SDS011;39605;52.704;6.752;2024-01-30T12:54:24;12.18;;;10.27;;
53710;SDS011;39605;52.704;6.752;2024-01-30T12:56:50;14.80;;;10.68;;
53710;SDS011;39605;52.704;6.752;2024-01-30T12:59:16;12.25;;;10.73;;
53710;SDS011;39605;52.704;6.752;2024-01-30T13:01:42;12.45;;;11.13;;
53710;SDS011;39605;52.704;6.752;2024-01-30T13:04:08;11.77;;;10.15;;
53710;SDS011;39605;52.704;6.752;2024-01-30T13:06:35;13.05;;;10.48;;
53710;SDS011;39605;52.704;6.752;2024-01-30T13:09:01;13.43;;;10.32;;
53710;SDS011;39605;52.704;6.752;2024-01-30T13:11:27;10.25;;;8.95;;
53710;SDS011;39605;52.704;6.752;2024-01-30T13:13:53;8.45;;;7.68;;
53710;SDS011;39605;52.704;6.752;2024-01-30T13:16:19;11.00;;;7.07;;
53710;SDS011;39605;52.704;6.752;2024-01-30T13:18:45;12.25;;;6.75;;
53710;SDS011;39605;52.704;6.752;2024-01-30T13:21:11;9.77;;;6.45;;
53710;SDS011;39605;52.704;6.752;2024-01-30T13:23:37;10.02;;;6.20;;
53710;SDS011;39605;52.704;6.752;2024-01-30T13:26:03;6.30;;;5.65;;
53710;SDS011;39605;52.704;6.752;2024-01-30T13:28:30;8.73;;;5.22;;
53710;SDS011;39605;52.704;6.752;2024-01-30T13:30:56;6.10;;;4.15;;
53710;SDS011;39605;52.704;6.752;2024-01-30T13:33:22;7.70;;;5.28;;
53710;SDS011;39605;52.704;6.752;2024-01-30T13:35:48;4.40;;;3.67;;
53710;SDS011;39605;52.704;6.752;2024-01-30T13:38:14;7.95;;;4.18;;
53710;SDS011;39605;52.704;6.752;2024-01-30T13:40:40;8.73;;;3.55;;
53710;SDS011;39605;52.704;6.752;2024-01-30T13:43:06;5.97;;;3.58;;
53710;SDS011;39605;52.704;6.752;2024-01-30T13:45:33;7.15;;;3.20;;
53710;SDS011;39605;52.704;6.752;2024-01-30T13:47:59;7.38;;;2.72;;
53710;SDS011;39605;52.704;6.752;2024-01-30T13:50:25;4.40;;;2.28;;
53710;SDS011;39605;52.704;6.752;2024-01-30T13:52:51;6.72;;;2.10;;
53710;SDS011;39605;52.704;6.752;2024-01-30T13:55:17;4.93;;;1.88;;
53710;SDS011;39605;52.704;6.752;2024-01-30T13:57:43;5.35;;;2.03;;
53710;SDS011;39605;52.704;6.752;2024-01-30T14:00:09;6.13;;;2.65;;
53710;SDS011;39605;52.704;6.752;2024-01-30T14:02:36;5.72;;;2.33;;
53710;SDS011;39605;52.704;6.752;2024-01-30T14:05:03;4.88;;;2.70;;
53710;SDS011;39605;52.704;6.752;2024-01-30T14:07:31;6.47;;;3.13;;
53710;SDS011;39605;52.704;6.752;2024-01-30T14:09:57;6.43;;;3.28;;
53710;SDS011;39605;52.704;6.752;2024-01-30T14:12:23;4.25;;;3.10;;
53710;SDS011;39605;52.704;6.752;2024-01-30T14:14:49;5.45;;;3.00;;
53710;SDS011;39605;52.704;6.752;2024-01-30T14:17:15;3.08;;;2.88;;
53710;SDS011;39605;52.704;6.752;2024-01-30T14:19:42;4.25;;;2.40;;